Aérodrome :
LOGIN :

S'inscrire | Disclaimer

   EN    FR    IT 

 










Légende :    VFR   VFR Marginal   IFR   IFR Intensif   IFR Très Intensif
Visi : 
Plafond : 
>= 8 km
>= 3000ft
5 à 8 km
1000 à 3000 ft
1500m à 5 km
500 à 1000 ft
800 à 1500m
200 à 500 ft
< 800m
< 200 ft
Symboles :   Orages  Brouillard  Fortes neiges  Fortes précipitations  Vent > 20 kt
SIGMETs :   Divers  Orages  Givrage  Turbulence  Onde Orograph.  Cendres Volcan.






- Altitude de l'aérodrome : 120 ft
- Code IATA : MME


EGNV - Durham Tees valley

DERNIER METAR :
  • 140750Z 23014KT 9999 FEW031 03/01 Q0978

METARs EXPIRÉS :
  • 140720Z 25009KT 9999 FEW045 03/00 Q0978
  • 140650Z 22008KT 9999 FEW038 02/00 Q0978
  • 140620Z 25012KT 9999 FEW030 03/01 Q0977
  • 140550Z 23012KT 9999 FEW020 03/00 Q0977

TAF TAF EGNV
Valide du 14 à 06h jusqu'au 14 à 15h UTC


140623Z 1406/1415 23009KT 9999 SCT030
BECMG 1406/1409 24019KT
TEMPO 1406/1415 25023G33KT 6000 SHRA BKN010
ATIS : +44 9012 018 111



MET'MAP, la Météo Aéronautique d'un coup d'oeil ! - Copyright ORBIFLY Décembre 2007 - Disclaimer

ORBIFLY MET'MAP TEAM :

Programmation & Développement : Alexandra Zaïnal
Sur une idée originale de : Baudouin d'Aumeries
Assistance à la programmation : Marc-Olivier Méhu
Soutien technique & logistique : Manuel Goepfert

Contact : metmap@orbifly.com




SOURCES & CREDITS :

   NOAA